Knife Lake, Minnesota
Current Conditions -  °F | °C
As of 1:46 PM on Friday 28 Nov 2014 (Local Time) from K04W Reporting Station
Light Snow Light Snow  
Wind Chill: 18°   Ceiling: 1700
Heat Index: 18°   Visibility: 10mi
Dew Point: 12°   Wind: 0mph
Humidity: 79%   Direction: NA
Pressure: 29.89"   Gusts: NA
Location:  45.9652°N, 93.2874°W
Report Text: K04W 281946Z AUTO 00000KT 10SM -SN OVC017 M08/M11 A2989 RMK AO2
Loading
Personal Weather Stations






























Interactive Weather Map New forecast layout! Learn more

10-Day Weather Forecast

Advertisements
Track Severe Weather on mobile